Time;durP1;ratioP1;P1;durP2;ratioP2;P2;SDS_P1;SDS_P2;PMS_P1;PMS_P2;Temp;Humidity;BMP_temperature;BMP_pressure;BME280_temperature;BME280_humidity;BME280_pressure;Samples;Min_cycle;Max_cycle;Signal;HPM_P1;HPM_P2
2022/06/29 00:00:29;;;;;;;2.20;1.40;;;;;;;;;;4964837;28;20196;-74
2022/06/29 00:02:55;;;;;;;1.80;1.20;;;;;;;;;;4969763;28;20196;-74
2022/06/29 00:05:22;;;;;;;3.60;1.60;;;;;;;;;;4972577;28;20560;-74
2022/06/29 00:07:49;;;;;;;1.40;1.30;;;;;;;;;;4967061;28;20180;-74
2022/06/29 00:10:15;;;;;;;2.60;1.43;;;;;;;;;;4967440;28;20211;-75
2022/06/29 00:12:43;;;;;;;2.37;1.50;;;;;;;;;;4953844;28;20360;-74
2022/06/29 00:15:09;;;;;;;2.60;1.50;;;;;;;;;;4967531;28;20621;-74
2022/06/29 00:17:36;;;;;;;2.13;1.37;;;;;;;;;;4949895;28;20210;-74
2022/06/29 00:20:03;;;;;;;2.40;1.43;;;;;;;;;;4967722;28;20255;-74
2022/06/29 00:22:30;;;;;;;2.10;1.50;;;;;;;;;;4970026;28;20169;-74
2022/06/29 00:24:56;;;;;;;2.57;1.30;;;;;;;;;;4968097;28;20184;-74
2022/06/29 00:27:22;;;;;;;1.40;1.30;;;;;;;;;;4966672;28;20219;-74
2022/06/29 00:29:51;;;;;;;1.90;1.40;;;;;;;;;;4962933;28;20192;-74
2022/06/29 00:32:17;;;;;;;1.53;1.30;;;;;;;;;;4953117;28;20266;-74
2022/06/29 00:34:44;;;;;;;1.47;1.37;;;;;;;;;;4962492;28;20230;-74
2022/06/29 00:37:10;;;;;;;1.60;1.20;;;;;;;;;;4961077;28;20182;-74
2022/06/29 00:39:36;;;;;;;1.70;1.37;;;;;;;;;;4968327;28;20275;-74
2022/06/29 00:42:03;;;;;;;1.73;1.30;;;;;;;;;;4970262;28;20270;-74
2022/06/29 00:44:29;;;;;;;1.57;1.20;;;;;;;;;;4972492;28;20188;-74
2022/06/29 00:46:57;;;;;;;1.40;1.23;;;;;;;;;;4967408;28;20715;-74
2022/06/29 00:49:26;;;;;;;1.63;1.20;;;;;;;;;;4969121;28;20238;-74
2022/06/29 00:52:02;;;;;;;2.03;1.43;;;;;;;;;;4969419;28;20212;-74
2022/06/29 00:54:31;;;;;;;2.50;1.47;;;;;;;;;;4965120;28;20655;-74
2022/06/29 00:56:59;;;;;;;2.33;1.30;;;;;;;;;;4965577;28;20287;-74
2022/06/29 00:59:25;;;;;;;4.13;1.50;;;;;;;;;;4963511;28;20207;-74
2022/06/29 01:01:51;;;;;;;2.33;1.40;;;;;;;;;;4967568;28;20200;-74
2022/06/29 01:04:18;;;;;;;2.83;1.47;;;;;;;;;;4965951;28;20656;-74
2022/06/29 01:06:44;;;;;;;1.90;1.43;;;;;;;;;;4968892;28;20231;-74
2022/06/29 01:09:10;;;;;;;1.90;1.40;;;;;;;;;;4966736;28;20324;-74
2022/06/29 01:11:37;;;;;;;2.60;1.53;;;;;;;;;;4969817;28;20235;-74
2022/06/29 01:14:03;;;;;;;2.03;1.40;;;;;;;;;;4968587;28;20232;-74
2022/06/29 01:16:30;;;;;;;2.23;1.40;;;;;;;;;;4969133;28;20664;-74
2022/06/29 01:18:58;;;;;;;1.47;1.30;;;;;;;;;;4973972;28;20193;-74
2022/06/29 01:21:28;;;;;;;1.80;1.37;;;;;;;;;;4971583;28;20791;-74
2022/06/29 01:23:54;;;;;;;1.30;1.20;;;;;;;;;;4967833;28;20235;-74
2022/06/29 01:26:20;;;;;;;1.73;1.13;;;;;;;;;;4954462;28;20268;-74
2022/06/29 01:28:46;;;;;;;1.40;1.30;;;;;;;;;;4964416;28;20200;-74
2022/06/29 01:31:14;;;;;;;2.17;1.30;;;;;;;;;;4952583;28;20672;-74
2022/06/29 01:33:40;;;;;;;2.70;1.30;;;;;;;;;;4965425;28;20188;-74
2022/06/29 01:36:06;;;;;;;1.83;1.30;;;;;;;;;;4968739;28;20181;-74
2022/06/29 01:38:33;;;;;;;1.50;1.40;;;;;;;;;;4972420;28;20181;-74
2022/06/29 01:40:59;;;;;;;2.00;1.50;;;;;;;;;;4957216;28;20314;-74
2022/06/29 01:43:26;;;;;;;1.70;1.23;;;;;;;;;;4967837;28;20193;-74
2022/06/29 01:45:52;;;;;;;1.47;1.33;;;;;;;;;;4970055;28;20196;-74
2022/06/29 01:48:18;;;;;;;2.93;1.40;;;;;;;;;;4970480;28;20189;-74
2022/06/29 01:50:44;;;;;;;2.67;1.50;;;;;;;;;;4970730;28;20212;-74
2022/06/29 01:53:10;;;;;;;1.60;1.50;;;;;;;;;;4956433;28;20275;-73
2022/06/29 01:55:36;;;;;;;1.90;1.30;;;;;;;;;;4951436;28;20240;-74
2022/06/29 01:58:02;;;;;;;1.30;1.20;;;;;;;;;;4971845;28;20195;-74
2022/06/29 02:00:29;;;;;;;3.00;1.30;;;;;;;;;;4975176;28;20304;-74
2022/06/29 02:02:55;;;;;;;3.17;1.30;;;;;;;;;;4954603;28;20180;-74
2022/06/29 02:05:21;;;;;;;1.30;1.20;;;;;;;;;;4968093;28;20196;-74
2022/06/29 02:07:47;;;;;;;1.40;1.30;;;;;;;;;;4971693;28;20691;-74
2022/06/29 02:10:13;;;;;;;3.57;1.47;;;;;;;;;;4970865;28;20204;-74
2022/06/29 02:12:39;;;;;;;2.30;1.50;;;;;;;;;;4970835;28;20193;-74
2022/06/29 02:15:07;;;;;;;3.33;1.50;;;;;;;;;;4968756;28;20719;-74
2022/06/29 02:17:33;;;;;;;2.10;1.33;;;;;;;;;;4956896;28;20189;-74
2022/06/29 02:19:59;;;;;;;1.50;1.40;;;;;;;;;;4971291;28;20207;-74
2022/06/29 02:22:26;;;;;;;1.70;1.50;;;;;;;;;;4974331;28;20672;-74
2022/06/29 02:24:52;;;;;;;2.47;1.30;;;;;;;;;;4969532;28;20197;-74
2022/06/29 02:27:18;;;;;;;1.80;1.50;;;;;;;;;;4970065;28;20212;-74
2022/06/29 02:29:45;;;;;;;3.00;1.67;;;;;;;;;;4968638;28;20196;-74
2022/06/29 02:34:56;;;;;;;3.03;1.30;;;;;;;;;;4970545;28;20694;-74
2022/06/29 02:37:22;;;;;;;1.80;1.50;;;;;;;;;;4951223;28;20214;-74
2022/06/29 02:39:48;;;;;;;2.37;1.50;;;;;;;;;;4969350;28;20195;-74
2022/06/29 02:42:15;;;;;;;1.30;1.20;;;;;;;;;;4971581;28;20201;-74
2022/06/29 02:44:42;;;;;;;1.87;1.50;;;;;;;;;;4972584;28;20655;-74
2022/06/29 02:47:08;;;;;;;3.17;1.63;;;;;;;;;;4951799;28;20204;-75
2022/06/29 02:49:35;;;;;;;1.97;1.47;;;;;;;;;;4970925;28;20188;-74
2022/06/29 02:52:01;;;;;;;2.57;1.70;;;;;;;;;;4953350;28;20200;-74
2022/06/29 02:54:28;;;;;;;2.97;1.60;;;;;;;;;;4968878;28;20215;-74
2022/06/29 02:56:54;;;;;;;2.00;1.60;;;;;;;;;;4964661;28;20707;-74
2022/06/29 02:59:20;;;;;;;3.17;1.80;;;;;;;;;;4956585;28;20184;-74
2022/06/29 03:01:47;;;;;;;2.00;1.80;;;;;;;;;;4968830;28;20219;-75
2022/06/29 03:04:13;;;;;;;3.43;1.70;;;;;;;;;;4966778;28;20181;-74
2022/06/29 03:06:39;;;;;;;2.13;1.80;;;;;;;;;;4971412;28;20210;-74
2022/06/29 03:09:06;;;;;;;2.77;1.90;;;;;;;;;;4970287;28;20569;-73
2022/06/29 03:11:32;;;;;;;2.63;1.87;;;;;;;;;;4971133;28;20205;-73
2022/06/29 03:13:58;;;;;;;2.97;1.90;;;;;;;;;;4969389;28;20818;-73
2022/06/29 03:16:25;;;;;;;2.60;1.80;;;;;;;;;;4971260;28;20212;-74
2022/06/29 03:18:51;;;;;;;3.97;1.97;;;;;;;;;;4968836;28;20824;-74
2022/06/29 03:21:18;;;;;;;4.73;1.90;;;;;;;;;;4969904;28;20284;-74
2022/06/29 03:23:44;;;;;;;5.30;2.00;;;;;;;;;;4968270;28;20180;-73
2022/06/29 03:26:11;;;;;;;2.40;1.93;;;;;;;;;;4972518;28;20240;-74
2022/06/29 03:28:37;;;;;;;3.97;2.10;;;;;;;;;;4951911;28;20308;-74
2022/06/29 03:31:03;;;;;;;2.20;2.00;;;;;;;;;;4975749;28;20583;-74
2022/06/29 03:33:29;;;;;;;2.30;2.07;;;;;;;;;;4964185;28;20192;-73
2022/06/29 03:35:56;;;;;;;4.17;2.20;;;;;;;;;;4968935;28;20217;-74
2022/06/29 03:38:22;;;;;;;2.70;1.80;;;;;;;;;;4969592;28;20191;-74
2022/06/29 03:40:48;;;;;;;2.77;1.77;;;;;;;;;;4967089;28;20584;-74
2022/06/29 03:43:14;;;;;;;2.17;1.97;;;;;;;;;;4967429;28;20197;-74
2022/06/29 03:45:41;;;;;;;2.20;1.80;;;;;;;;;;4970239;28;20192;-74
2022/06/29 03:48:07;;;;;;;3.63;1.90;;;;;;;;;;4971489;28;20241;-74
2022/06/29 03:50:33;;;;;;;4.77;1.97;;;;;;;;;;4970606;28;20208;-74
2022/06/29 03:53:00;;;;;;;4.63;2.03;;;;;;;;;;4967457;28;20648;-74
2022/06/29 03:55:26;;;;;;;2.07;1.73;;;;;;;;;;4969817;28;20531;-74
2022/06/29 03:57:52;;;;;;;4.50;2.00;;;;;;;;;;4968672;28;20244;-74
2022/06/29 04:00:18;;;;;;;2.10;1.70;;;;;;;;;;4967011;28;20204;-73
2022/06/29 04:02:46;;;;;;;3.47;1.90;;;;;;;;;;4967279;28;20215;-73
2022/06/29 04:05:12;;;;;;;4.17;1.97;;;;;;;;;;4969681;28;20191;-74
2022/06/29 04:07:38;;;;;;;3.07;2.03;;;;;;;;;;4968151;28;20188;-74
2022/06/29 04:10:05;;;;;;;2.93;2.00;;;;;;;;;;4953639;28;20188;-74
2022/06/29 04:12:32;;;;;;;3.17;2.07;;;;;;;;;;4968984;28;20183;-74
2022/06/29 04:14:59;;;;;;;4.40;1.80;;;;;;;;;;4978621;28;20371;-74
2022/06/29 04:17:25;;;;;;;4.13;2.20;;;;;;;;;;4970143;28;20736;-74
2022/06/29 04:19:51;;;;;;;3.33;1.90;;;;;;;;;;4956413;28;20185;-74
2022/06/29 04:22:18;;;;;;;2.50;2.10;;;;;;;;;;4969166;28;20192;-74
2022/06/29 04:24:44;;;;;;;2.70;2.17;;;;;;;;;;4957394;28;20251;-74
2022/06/29 04:27:10;;;;;;;3.20;2.00;;;;;;;;;;4967930;28;20191;-74
2022/06/29 04:29:36;;;;;;;2.73;2.10;;;;;;;;;;4972562;28;20283;-74
2022/06/29 04:32:03;;;;;;;3.67;2.10;;;;;;;;;;4971400;28;20218;-74
2022/06/29 04:34:29;;;;;;;3.10;2.20;;;;;;;;;;4964463;28;20247;-74
2022/06/29 04:36:55;;;;;;;3.60;2.23;;;;;;;;;;4947303;28;20888;-74
2022/06/29 04:39:22;;;;;;;3.33;2.30;;;;;;;;;;4965571;28;20258;-74
2022/06/29 04:41:48;;;;;;;3.03;2.40;;;;;;;;;;4968851;28;20209;-74
2022/06/29 04:44:15;;;;;;;3.67;2.20;;;;;;;;;;4967987;28;20600;-74
2022/06/29 04:46:41;;;;;;;6.40;2.33;;;;;;;;;;4965501;28;20247;-74
2022/06/29 04:49:09;;;;;;;4.40;2.40;;;;;;;;;;4964067;28;20180;-73
2022/06/29 04:51:35;;;;;;;3.77;2.37;;;;;;;;;;4965396;28;20692;-73
2022/06/29 04:54:02;;;;;;;3.20;2.40;;;;;;;;;;4966850;28;20663;-74
2022/06/29 04:56:29;;;;;;;3.47;2.07;;;;;;;;;;4966259;28;22138;-74
2022/06/29 04:58:56;;;;;;;3.10;2.27;;;;;;;;;;4968479;28;20192;-74
2022/06/29 05:01:22;;;;;;;3.93;2.00;;;;;;;;;;4976748;28;20283;-74
2022/06/29 05:03:49;;;;;;;3.47;2.30;;;;;;;;;;4957432;28;20265;-74
2022/06/29 05:06:15;;;;;;;3.17;2.10;;;;;;;;;;4967670;28;20703;-74
2022/06/29 05:08:41;;;;;;;2.70;2.10;;;;;;;;;;4951439;28;20191;-74
2022/06/29 05:11:08;;;;;;;2.40;2.20;;;;;;;;;;4955494;28;20200;-74
2022/06/29 05:13:34;;;;;;;3.63;2.03;;;;;;;;;;4969820;28;20199;-74
2022/06/29 05:16:00;;;;;;;4.27;2.20;;;;;;;;;;4970438;28;20220;-74
2022/06/29 05:18:28;;;;;;;6.37;2.43;;;;;;;;;;4971647;28;20463;-74
2022/06/29 05:20:54;;;;;;;2.97;2.30;;;;;;;;;;4972278;28;20235;-74
2022/06/29 05:23:20;;;;;;;3.93;2.40;;;;;;;;;;4972083;28;20239;-74
2022/06/29 05:25:46;;;;;;;5.10;2.27;;;;;;;;;;4969435;28;20641;-74
2022/06/29 05:28:13;;;;;;;5.27;2.23;;;;;;;;;;4969835;28;20672;-74
2022/06/29 05:30:39;;;;;;;3.07;2.40;;;;;;;;;;4958504;28;20294;-74
2022/06/29 05:33:05;;;;;;;2.40;2.10;;;;;;;;;;4958868;28;20215;-73
2022/06/29 05:35:33;;;;;;;3.30;2.20;;;;;;;;;;4972929;28;20204;-74
2022/06/29 05:38:03;;;;;;;3.87;2.30;;;;;;;;;;4957853;28;20197;-75
2022/06/29 05:40:30;;;;;;;4.43;2.63;;;;;;;;;;4971240;28;20295;-74
2022/06/29 05:42:57;;;;;;;5.43;2.13;;;;;;;;;;4970376;28;20185;-74
2022/06/29 05:45:24;;;;;;;3.17;2.00;;;;;;;;;;4970029;28;20263;-73
2022/06/29 05:47:52;;;;;;;2.30;2.00;;;;;;;;;;4972056;28;20551;-78
2022/06/29 05:50:18;;;;;;;3.87;2.13;;;;;;;;;;4975712;28;20208;-76
2022/06/29 05:52:45;;;;;;;3.10;2.30;;;;;;;;;;4951025;28;20565;-75
2022/06/29 05:55:11;;;;;;;3.47;2.10;;;;;;;;;;4957170;28;20204;-75
2022/06/29 05:57:37;;;;;;;3.23;2.40;;;;;;;;;;4974198;28;20192;-76
2022/06/29 06:00:04;;;;;;;2.60;2.40;;;;;;;;;;4973214;28;20516;-76
2022/06/29 06:02:38;;;;;;;2.57;2.37;;;;;;;;;;4970320;28;20565;-76
2022/06/29 06:05:04;;;;;;;3.40;2.33;;;;;;;;;;4977538;28;20196;-76
2022/06/29 06:07:30;;;;;;;6.87;2.53;;;;;;;;;;4974982;28;20326;-76
2022/06/29 06:09:57;;;;;;;2.57;2.20;;;;;;;;;;4975736;28;20194;-75
2022/06/29 06:12:23;;;;;;;4.70;2.50;;;;;;;;;;4978178;28;20216;-76
2022/06/29 06:14:49;;;;;;;3.23;2.10;;;;;;;;;;4976997;28;20204;-76
2022/06/29 06:17:15;;;;;;;2.53;2.33;;;;;;;;;;4978224;28;20178;-77
2022/06/29 06:19:41;;;;;;;3.73;2.40;;;;;;;;;;4986693;28;20179;-77
2022/06/29 06:22:08;;;;;;;3.77;2.47;;;;;;;;;;4968776;28;20199;-76
2022/06/29 06:24:34;;;;;;;2.87;2.10;;;;;;;;;;4973424;28;20192;-76
2022/06/29 06:27:00;;;;;;;3.40;2.30;;;;;;;;;;4971894;28;20727;-76
2022/06/29 06:29:26;;;;;;;4.57;2.27;;;;;;;;;;4957977;28;20196;-76
2022/06/29 06:31:52;;;;;;;4.57;2.17;;;;;;;;;;4960192;28;20779;-76
2022/06/29 06:34:18;;;;;;;2.23;2.03;;;;;;;;;;4972498;28;20200;-76
2022/06/29 06:36:45;;;;;;;5.07;2.50;;;;;;;;;;4974400;28;20207;-77
2022/06/29 06:39:11;;;;;;;3.43;2.50;;;;;;;;;;4973549;28;20180;-76
2022/06/29 06:41:37;;;;;;;4.00;2.40;;;;;;;;;;4954960;28;20224;-76
2022/06/29 06:44:03;;;;;;;3.67;2.40;;;;;;;;;;4973245;28;20192;-76
2022/06/29 06:46:29;;;;;;;4.27;2.80;;;;;;;;;;4972087;28;20185;-76
2022/06/29 06:48:56;;;;;;;5.87;2.27;;;;;;;;;;4969901;28;20185;-76
2022/06/29 06:51:23;;;;;;;5.57;2.57;;;;;;;;;;4970236;28;20212;-76
2022/06/29 06:53:49;;;;;;;6.10;2.60;;;;;;;;;;4971361;28;20642;-76
2022/06/29 06:56:15;;;;;;;5.10;2.30;;;;;;;;;;4971569;28;20185;-76
2022/06/29 06:58:42;;;;;;;5.33;2.63;;;;;;;;;;4968404;28;20239;-76
2022/06/29 07:01:09;;;;;;;6.17;3.13;;;;;;;;;;4970376;28;21106;-77
2022/06/29 07:03:38;;;;;;;4.53;3.60;;;;;;;;;;4969252;28;20220;-76
2022/06/29 07:06:06;;;;;;;6.77;3.50;;;;;;;;;;4966922;28;20275;-76
2022/06/29 07:08:34;;;;;;;3.80;3.40;;;;;;;;;;4968019;28;20188;-76
2022/06/29 07:11:01;;;;;;;4.80;3.27;;;;;;;;;;4968497;28;20583;-74
2022/06/29 07:13:28;;;;;;;3.67;3.20;;;;;;;;;;4967802;28;20255;-74
2022/06/29 07:15:54;;;;;;;3.90;3.03;;;;;;;;;;4969894;28;20216;-72
2022/06/29 07:18:21;;;;;;;3.67;2.80;;;;;;;;;;4952823;28;20189;-76
2022/06/29 07:20:47;;;;;;;3.97;2.70;;;;;;;;;;4973868;28;20248;-76
2022/06/29 07:23:13;;;;;;;3.07;2.60;;;;;;;;;;4955701;28;20534;-74
2022/06/29 07:25:39;;;;;;;5.63;3.00;;;;;;;;;;4951063;28;20665;-74
2022/06/29 07:28:05;;;;;;;6.03;3.10;;;;;;;;;;4952334;28;20812;-75
2022/06/29 07:30:32;;;;;;;3.40;2.40;;;;;;;;;;4966180;28;20340;-72
2022/06/29 07:32:58;;;;;;;4.37;3.00;;;;;;;;;;4966618;28;20187;-72
2022/06/29 07:35:26;;;;;;;5.07;3.00;;;;;;;;;;4967343;28;20351;-72
2022/06/29 07:37:52;;;;;;;4.00;2.83;;;;;;;;;;4968103;28;20188;-72
2022/06/29 07:40:19;;;;;;;4.63;2.63;;;;;;;;;;4965607;28;20359;-72
2022/06/29 07:42:45;;;;;;;3.70;3.00;;;;;;;;;;4973242;28;20676;-72
2022/06/29 07:45:11;;;;;;;4.03;2.90;;;;;;;;;;4969926;28;20267;-72
2022/06/29 07:47:39;;;;;;;4.87;2.90;;;;;;;;;;4970694;28;20189;-72
2022/06/29 07:50:05;;;;;;;4.30;2.83;;;;;;;;;;4968007;28;20644;-72
2022/06/29 07:52:33;;;;;;;3.73;2.80;;;;;;;;;;4968201;28;20240;-72
2022/06/29 07:55:03;;;;;;;2.87;2.67;;;;;;;;;;4968731;28;20212;-72
2022/06/29 07:57:30;;;;;;;3.03;2.70;;;;;;;;;;4969965;28;20184;-72
2022/06/29 07:59:56;;;;;;;3.20;2.90;;;;;;;;;;4968123;28;20187;-72
2022/06/29 08:02:22;;;;;;;4.47;3.10;;;;;;;;;;4966389;28;20184;-72
2022/06/29 08:04:48;;;;;;;4.20;2.90;;;;;;;;;;4972274;28;20229;-72
2022/06/29 08:07:14;;;;;;;3.30;3.00;;;;;;;;;;4968551;28;20243;-72
2022/06/29 08:09:40;;;;;;;2.87;2.50;;;;;;;;;;4961495;28;20927;-72
2022/06/29 08:12:08;;;;;;;5.03;2.80;;;;;;;;;;4962014;28;20629;-72
2022/06/29 08:14:34;;;;;;;3.90;3.10;;;;;;;;;;4963442;28;20212;-72
2022/06/29 08:17:00;;;;;;;3.20;2.90;;;;;;;;;;4965639;28;20780;-72
2022/06/29 08:19:27;;;;;;;3.47;3.17;;;;;;;;;;4951756;28;20524;-72
2022/06/29 08:21:54;;;;;;;3.57;3.27;;;;;;;;;;4968855;28;20206;-72
2022/06/29 08:24:20;;;;;;;6.00;3.30;;;;;;;;;;4963369;28;20718;-72
2022/06/29 08:26:46;;;;;;;4.43;3.00;;;;;;;;;;4960681;28;20190;-72
2022/06/29 08:29:12;;;;;;;8.77;4.17;;;;;;;;;;4960487;28;20714;-72
2022/06/29 08:31:39;;;;;;;4.37;3.70;;;;;;;;;;4961208;28;20297;-72
2022/06/29 08:34:09;;;;;;;4.20;3.80;;;;;;;;;;4964781;28;20235;-72
2022/06/29 08:36:35;;;;;;;3.70;3.40;;;;;;;;;;4962134;28;20182;-72
2022/06/29 08:39:01;;;;;;;3.93;3.63;;;;;;;;;;4964293;28;20209;-72
2022/06/29 08:41:32;;;;;;;3.77;3.47;;;;;;;;;;4964714;28;20251;-72
2022/06/29 08:43:59;;;;;;;4.43;3.20;;;;;;;;;;4962585;28;20185;-72
2022/06/29 08:46:26;;;;;;;4.50;4.10;;;;;;;;;;4962135;28;20280;-72
2022/06/29 08:48:52;;;;;;;3.80;3.50;;;;;;;;;;4964084;28;20220;-74
2022/06/29 08:51:21;;;;;;;8.10;3.80;;;;;;;;;;4964925;28;20228;-79
2022/06/29 08:53:50;;;;;;;4.90;3.47;;;;;;;;;;4970116;28;20525;-72
2022/06/29 08:56:17;;;;;;;4.00;3.60;;;;;;;;;;4964723;28;20718;-72
2022/06/29 08:58:45;;;;;;;5.23;4.60;;;;;;;;;;4971561;28;20196;-72
2022/06/29 09:01:12;;;;;;;4.30;3.90;;;;;;;;;;4972995;28;20227;-72
2022/06/29 09:03:38;;;;;;;5.10;4.60;;;;;;;;;;4972098;28;20258;-73
2022/06/29 09:06:06;;;;;;;6.03;4.30;;;;;;;;;;4969194;28;20206;-72
2022/06/29 09:08:33;;;;;;;6.77;4.70;;;;;;;;;;4972829;28;20180;-72
2022/06/29 09:11:19;;;;;;;5.23;4.70;;;;;;;;;;4972084;28;20202;-71
2022/06/29 09:13:46;;;;;;;4.87;4.47;;;;;;;;;;4971635;28;20216;-72
2022/06/29 09:16:12;;;;;;;5.20;4.70;;;;;;;;;;4966362;28;20270;-72
2022/06/29 09:18:38;;;;;;;5.23;4.43;;;;;;;;;;4969671;28;20187;-72
2022/06/29 09:21:05;;;;;;;4.97;4.30;;;;;;;;;;4969922;28;20201;-72
2022/06/29 09:23:32;;;;;;;6.07;5.27;;;;;;;;;;4967246;28;20208;-72
2022/06/29 09:25:59;;;;;;;5.03;4.63;;;;;;;;;;4968699;28;20676;-72
2022/06/29 09:28:27;;;;;;;5.30;4.80;;;;;;;;;;4962024;28;20200;-73
2022/06/29 09:30:54;;;;;;;6.40;4.97;;;;;;;;;;4964727;28;20208;-73
2022/06/29 09:33:24;;;;;;;6.33;4.80;;;;;;;;;;4969306;28;20549;-72
2022/06/29 09:36:05;;;;;;;7.10;5.00;;;;;;;;;;4954018;28;20875;-72
2022/06/29 09:38:32;;;;;;;7.40;5.67;;;;;;;;;;4975020;28;20184;-72
2022/06/29 09:41:04;;;;;;;5.90;5.40;;;;;;;;;;4973142;28;20207;-72
2022/06/29 09:43:31;;;;;;;7.30;4.90;;;;;;;;;;4969828;28;20207;-72
2022/06/29 09:45:58;;;;;;;5.57;4.97;;;;;;;;;;4968416;28;20203;-73
2022/06/29 09:48:25;;;;;;;5.30;4.30;;;;;;;;;;4968955;28;20272;-73
2022/06/29 09:50:55;;;;;;;5.53;4.43;;;;;;;;;;4968562;28;20239;-73
2022/06/29 09:53:40;;;;;;;5.23;4.33;;;;;;;;;;4968333;28;20817;-74
2022/06/29 09:56:07;;;;;;;5.83;4.80;;;;;;;;;;4966840;28;20699;-73
2022/06/29 09:58:41;;;;;;;5.23;4.73;;;;;;;;;;4966127;28;20179;-71
2022/06/29 10:03:56;;;;;;;8.10;5.23;;;;;;;;;;4971618;28;20191;-72
2022/06/29 10:06:22;;;;;;;5.17;4.30;;;;;;;;;;4974141;28;20184;-72
2022/06/29 10:08:48;;;;;;;10.93;4.97;;;;;;;;;;4971377;28;20215;-72
2022/06/29 10:14:40;;;;;;;5.70;4.70;;;;;;;;;;4971618;28;20211;-72
2022/06/29 10:17:16;;;;;;;5.30;4.80;;;;;;;;;;4969229;28;20181;-71
2022/06/29 10:20:01;;;;;;;5.10;4.60;;;;;;;;;;4968305;28;20188;-72
2022/06/29 10:22:29;;;;;;;4.93;4.40;;;;;;;;;;4970697;28;20192;-71
2022/06/29 10:25:03;;;;;;;6.43;5.73;;;;;;;;;;4968412;28;20184;-72
2022/06/29 10:27:29;;;;;;;5.33;4.87;;;;;;;;;;4962664;28;20188;-71
2022/06/29 10:30:14;;;;;;;6.20;5.53;;;;;;;;;;4966022;28;20231;-71
2022/06/29 10:32:40;;;;;;;5.70;5.20;;;;;;;;;;4947090;28;20721;-71
2022/06/29 10:35:07;;;;;;;7.00;5.27;;;;;;;;;;4970186;28;20208;-72
2022/06/29 10:37:33;;;;;;;5.77;5.23;;;;;;;;;;4967762;28;20215;-71
2022/06/29 10:40:04;;;;;;;6.20;5.60;;;;;;;;;;4963324;28;20185;-71
2022/06/29 10:45:20;;;;;;;6.53;5.00;;;;;;;;;;4965888;28;20553;-73
2022/06/29 10:47:55;;;;;;;5.93;5.33;;;;;;;;;;4964757;28;20195;-73
2022/06/29 10:50:23;;;;;;;6.03;5.00;;;;;;;;;;4969031;28;20334;-71
2022/06/29 10:52:50;;;;;;;5.70;5.20;;;;;;;;;;4970614;28;20193;-72
2022/06/29 10:55:17;;;;;;;5.50;4.97;;;;;;;;;;4973146;28;20290;-71
2022/06/29 10:57:45;;;;;;;5.90;5.40;;;;;;;;;;4945341;28;20243;-71
2022/06/29 11:00:31;;;;;;;5.93;5.00;;;;;;;;;;4963550;28;20188;-72
2022/06/29 11:02:57;;;;;;;6.10;5.60;;;;;;;;;;4969313;28;20802;-72
2022/06/29 11:05:24;;;;;;;5.20;4.70;;;;;;;;;;4966365;28;20234;-70
2022/06/29 11:13:27;;;;;;;6.23;5.20;;;;;;;;;;4965969;28;20196;-70
2022/06/29 11:15:55;;;;;;;5.57;5.17;;;;;;;;;;4967891;28;20648;-70
2022/06/29 11:18:30;;;;;;;6.87;5.40;;;;;;;;;;4964660;28;20203;-70
2022/06/29 11:21:03;;;;;;;6.00;5.40;;;;;;;;;;4966546;28;20214;-70
2022/06/29 11:23:31;;;;;;;6.70;5.63;;;;;;;;;;4970707;28;20209;-70
2022/06/29 11:25:57;;;;;;;5.60;5.10;;;;;;;;;;4967361;28;20189;-71
2022/06/29 11:28:28;;;;;;;7.93;5.70;;;;;;;;;;4952934;28;20919;-71
2022/06/29 11:31:04;;;;;;;7.77;5.73;;;;;;;;;;4970235;28;20207;-70
2022/06/29 11:33:31;;;;;;;8.73;5.60;;;;;;;;;;4968100;28;20190;-72
2022/06/29 11:35:57;;;;;;;6.03;5.53;;;;;;;;;;4968557;28;20241;-72
2022/06/29 11:38:30;;;;;;;8.50;6.10;;;;;;;;;;4967432;28;20180;-72
2022/06/29 11:40:56;;;;;;;5.80;5.30;;;;;;;;;;4967901;28;20221;-72
2022/06/29 11:43:23;;;;;;;7.60;5.67;;;;;;;;;;4972545;28;20230;-72
2022/06/29 11:45:51;;;;;;;5.23;4.73;;;;;;;;;;4970565;28;20199;-73
2022/06/29 11:48:21;;;;;;;7.60;5.33;;;;;;;;;;4968349;28;20243;-72
2022/06/29 11:50:53;;;;;;;5.57;5.03;;;;;;;;;;4963969;28;20218;-73
2022/06/29 11:53:38;;;;;;;6.50;5.63;;;;;;;;;;4960388;28;20188;-75
2022/06/29 11:56:10;;;;;;;6.03;5.43;;;;;;;;;;4971688;28;20662;-73
2022/06/29 11:58:38;;;;;;;6.37;5.77;;;;;;;;;;4965493;28;20243;-72
2022/06/29 12:01:07;;;;;;;6.00;5.50;;;;;;;;;;4949943;28;20218;-72
2022/06/29 12:03:33;;;;;;;6.50;5.90;;;;;;;;;;4966110;28;20200;-73
2022/06/29 12:06:00;;;;;;;6.70;5.37;;;;;;;;;;4950238;28;20188;-72
2022/06/29 12:08:28;;;;;;;5.70;5.20;;;;;;;;;;4965062;28;20199;-73
2022/06/29 12:10:54;;;;;;;5.97;5.33;;;;;;;;;;4965818;28;20234;-71
2022/06/29 12:13:21;;;;;;;6.20;5.60;;;;;;;;;;4968068;28;20180;-81
2022/06/29 12:15:47;;;;;;;7.07;5.60;;;;;;;;;;4974229;28;20968;-73
2022/06/29 12:18:14;;;;;;;6.17;4.97;;;;;;;;;;4968194;28;20216;-72
2022/06/29 12:20:41;;;;;;;5.63;5.03;;;;;;;;;;4961557;28;20325;-71
2022/06/29 12:23:07;;;;;;;6.73;5.70;;;;;;;;;;4963340;28;20587;-73
2022/06/29 12:25:33;;;;;;;7.10;5.47;;;;;;;;;;4967537;28;20213;-73
2022/06/29 12:28:00;;;;;;;6.47;5.87;;;;;;;;;;4963339;28;20199;-72
2022/06/29 12:30:26;;;;;;;6.50;5.83;;;;;;;;;;4965316;28;20215;-72
2022/06/29 12:32:52;;;;;;;6.00;5.30;;;;;;;;;;4968546;28;20182;-72
2022/06/29 12:35:18;;;;;;;8.10;5.33;;;;;;;;;;4969414;28;20218;-72
2022/06/29 12:37:44;;;;;;;6.73;5.20;;;;;;;;;;4968168;28;20193;-72
2022/06/29 12:40:11;;;;;;;5.97;5.37;;;;;;;;;;4964532;28;20277;-72
2022/06/29 12:42:38;;;;;;;5.43;4.87;;;;;;;;;;4966370;28;20196;-72
2022/06/29 12:45:05;;;;;;;7.97;4.70;;;;;;;;;;4967952;28;20248;-72
2022/06/29 12:47:31;;;;;;;5.50;5.10;;;;;;;;;;4966099;28;20194;-72
2022/06/29 12:49:57;;;;;;;5.33;4.90;;;;;;;;;;4948614;28;20233;-72
2022/06/29 12:52:24;;;;;;;5.73;4.90;;;;;;;;;;4964552;28;20914;-72
2022/06/29 12:54:50;;;;;;;5.67;5.17;;;;;;;;;;4968252;28;20650;-76
2022/06/29 12:57:16;;;;;;;5.70;4.97;;;;;;;;;;4970960;28;20174;-77
2022/06/29 12:59:43;;;;;;;5.70;5.10;;;;;;;;;;4963727;28;20317;-73
2022/06/29 13:02:10;;;;;;;5.47;5.03;;;;;;;;;;4961913;28;20732;-72
2022/06/29 13:04:36;;;;;;;6.90;4.70;;;;;;;;;;4961042;28;20197;-72
2022/06/29 13:07:03;;;;;;;5.07;4.57;;;;;;;;;;4958832;28;20185;-71
2022/06/29 13:09:29;;;;;;;7.07;5.10;;;;;;;;;;4962206;28;20194;-72
2022/06/29 13:11:55;;;;;;;4.83;4.43;;;;;;;;;;4962256;28;20253;-71
2022/06/29 13:14:21;;;;;;;5.50;4.50;;;;;;;;;;4963915;28;20274;-71
2022/06/29 13:16:48;;;;;;;5.17;4.67;;;;;;;;;;4960491;28;20187;-71
2022/06/29 13:19:15;;;;;;;5.40;4.90;;;;;;;;;;4962795;28;20183;-71
2022/06/29 13:21:41;;;;;;;4.67;4.27;;;;;;;;;;4963258;28;20224;-72
2022/06/29 13:24:07;;;;;;;5.50;4.87;;;;;;;;;;4965800;28;21066;-71
2022/06/29 13:26:34;;;;;;;5.30;4.30;;;;;;;;;;4959617;28;20187;-71
2022/06/29 13:29:00;;;;;;;4.40;4.00;;;;;;;;;;4961733;28;20373;-72
2022/06/29 13:31:30;;;;;;;4.82;4.35;;;;;;;;;;4960882;28;20240;-72
2022/06/29 13:33:56;;;;;;;5.40;4.90;;;;;;;;;;4967421;28;20195;-72
2022/06/29 13:36:22;;;;;;;4.45;4.05;;;;;;;;;;4963514;28;20274;-72
2022/06/29 13:38:48;;;;;;;6.38;4.78;;;;;;;;;;4966739;28;20211;-72
2022/06/29 13:41:15;;;;;;;5.15;4.32;;;;;;;;;;4966251;28;20355;-72
2022/06/29 13:43:42;;;;;;;5.07;3.88;;;;;;;;;;4967690;28;20258;-72
2022/06/29 13:46:08;;;;;;;4.53;4.10;;;;;;;;;;4968133;28;20195;-73
2022/06/29 13:48:35;;;;;;;5.72;4.10;;;;;;;;;;4966908;28;20220;-73
2022/06/29 13:51:01;;;;;;;4.85;3.95;;;;;;;;;;4971892;28;20208;-73
2022/06/29 13:53:27;;;;;;;4.18;3.83;;;;;;;;;;4967347;28;20220;-73
2022/06/29 13:55:53;;;;;;;4.32;3.92;;;;;;;;;;4970511;28;20994;-73
2022/06/29 13:58:20;;;;;;;5.13;3.78;;;;;;;;;;4966663;28;20192;-73
2022/06/29 14:00:47;;;;;;;3.95;3.60;;;;;;;;;;4970801;28;20268;-73
2022/06/29 14:03:13;;;;;;;4.32;3.92;;;;;;;;;;4969422;28;20176;-73
2022/06/29 14:05:40;;;;;;;4.18;3.67;;;;;;;;;;4967210;28;20193;-73
2022/06/29 14:08:06;;;;;;;6.10;3.75;;;;;;;;;;4968364;28;20223;-72
2022/06/29 14:10:33;;;;;;;5.68;3.88;;;;;;;;;;4969883;28;20213;-73
2022/06/29 14:12:59;;;;;;;3.60;3.30;;;;;;;;;;4971429;28;20585;-73
2022/06/29 14:15:26;;;;;;;4.13;3.72;;;;;;;;;;4966910;28;20212;-73
2022/06/29 14:17:52;;;;;;;3.55;3.20;;;;;;;;;;4967863;28;20185;-73
2022/06/29 14:20:18;;;;;;;3.22;2.95;;;;;;;;;;4967456;28;20206;-73
2022/06/29 14:22:44;;;;;;;5.93;3.47;;;;;;;;;;4967209;28;20283;-72
2022/06/29 14:25:11;;;;;;;5.63;3.17;;;;;;;;;;4971726;28;20192;-73
2022/06/29 14:27:37;;;;;;;5.22;3.40;;;;;;;;;;4948907;28;20199;-73
2022/06/29 14:30:04;;;;;;;3.92;3.53;;;;;;;;;;4968890;28;20227;-73
2022/06/29 14:32:30;;;;;;;3.40;3.10;;;;;;;;;;4972470;28;20182;-73
2022/06/29 14:34:56;;;;;;;4.30;3.58;;;;;;;;;;4968750;28;20299;-73
2022/06/29 14:37:23;;;;;;;4.57;3.60;;;;;;;;;;4963577;28;20634;-73
2022/06/29 14:39:49;;;;;;;4.72;3.00;;;;;;;;;;4961800;28;20227;-73
2022/06/29 14:42:16;;;;;;;4.88;3.30;;;;;;;;;;4968593;28;20279;-73
2022/06/29 14:44:42;;;;;;;3.72;3.42;;;;;;;;;;4970263;28;20197;-73
2022/06/29 14:47:08;;;;;;;3.45;3.15;;;;;;;;;;4969343;28;20236;-73
2022/06/29 14:49:35;;;;;;;3.72;3.40;;;;;;;;;;4970469;28;20184;-74
2022/06/29 14:52:01;;;;;;;4.03;3.30;;;;;;;;;;4968936;28;20796;-73
2022/06/29 14:54:27;;;;;;;3.80;3.50;;;;;;;;;;4969863;28;20201;-73
2022/06/29 14:56:54;;;;;;;3.58;3.13;;;;;;;;;;4971488;28;20196;-73
2022/06/29 14:59:20;;;;;;;4.35;2.90;;;;;;;;;;4967734;28;20685;-73